sensor_id;sensor_type;location;lat;lon;timestamp;temperature;humidity
74368;DHT22;64991;41.090;-8.118;2022-11-20T00:00:08;18.10;84.30
74368;DHT22;64991;41.090;-8.118;2022-11-20T00:05:11;18.20;83.80
74368;DHT22;64991;41.090;-8.118;2022-11-20T00:10:16;18.20;83.60
74368;DHT22;64991;41.090;-8.118;2022-11-20T00:15:19;18.10;84.20
74368;DHT22;64991;41.090;-8.118;2022-11-20T00:20:22;18.10;84.10
74368;DHT22;64991;41.090;-8.118;2022-11-20T00:25:27;18.00;84.20
74368;DHT22;64991;41.090;-8.118;2022-11-20T00:30:30;18.00;84.50
74368;DHT22;64991;41.090;-8.118;2022-11-20T00:35:33;18.00;84.20
74368;DHT22;64991;41.090;-8.118;2022-11-20T00:40:38;18.00;84.20
74368;DHT22;64991;41.090;-8.118;2022-11-20T00:45:41;17.90;84.10
74368;DHT22;64991;41.090;-8.118;2022-11-20T00:50:44;18.00;84.10
74368;DHT22;64991;41.090;-8.118;2022-11-20T00:55:55;17.90;84.40
74368;DHT22;64991;41.090;-8.118;2022-11-20T01:01:02;17.80;84.30
74368;DHT22;64991;41.090;-8.118;2022-11-20T01:06:06;17.80;84.30
74368;DHT22;64991;41.090;-8.118;2022-11-20T01:11:12;17.80;84.00
74368;DHT22;64991;41.090;-8.118;2022-11-20T01:16:16;17.90;84.10
74368;DHT22;64991;41.090;-8.118;2022-11-20T01:21:20;17.90;84.30
74368;DHT22;64991;41.090;-8.118;2022-11-20T01:26:26;17.90;84.10
74368;DHT22;64991;41.090;-8.118;2022-11-20T01:31:30;17.90;84.30
74368;DHT22;64991;41.090;-8.118;2022-11-20T01:36:34;17.90;84.10
74368;DHT22;64991;41.090;-8.118;2022-11-20T01:41:39;17.90;84.40
74368;DHT22;64991;41.090;-8.118;2022-11-20T01:47:00;17.90;84.30
74368;DHT22;64991;41.090;-8.118;2022-11-20T01:52:05;17.90;84.30
74368;DHT22;64991;41.090;-8.118;2022-11-20T01:57:11;17.90;84.10
74368;DHT22;64991;41.090;-8.118;2022-11-20T02:02:15;17.90;84.20
74368;DHT22;64991;41.090;-8.118;2022-11-20T02:07:18;17.80;84.10
74368;DHT22;64991;41.090;-8.118;2022-11-20T02:12:23;17.80;84.20
74368;DHT22;64991;41.090;-8.118;2022-11-20T02:17:44;17.80;84.20
74368;DHT22;64991;41.090;-8.118;2022-11-20T02:22:48;17.90;84.20
74368;DHT22;64991;41.090;-8.118;2022-11-20T02:27:55;17.90;84.20
74368;DHT22;64991;41.090;-8.118;2022-11-20T02:32:58;17.90;84.20
74368;DHT22;64991;41.090;-8.118;2022-11-20T02:38:02;17.90;83.90
74368;DHT22;64991;41.090;-8.118;2022-11-20T02:43:06;17.90;84.10
74368;DHT22;64991;41.090;-8.118;2022-11-20T02:48:10;17.90;84.30
74368;DHT22;64991;41.090;-8.118;2022-11-20T02:53:13;17.90;84.10
74368;DHT22;64991;41.090;-8.118;2022-11-20T02:58:17;17.90;84.10
74368;DHT22;64991;41.090;-8.118;2022-11-20T03:03:20;17.90;84.00
74368;DHT22;64991;41.090;-8.118;2022-11-20T03:08:23;17.90;84.40
74368;DHT22;64991;41.090;-8.118;2022-11-20T03:13:28;17.90;84.00
74368;DHT22;64991;41.090;-8.118;2022-11-20T03:18:31;17.90;84.00
74368;DHT22;64991;41.090;-8.118;2022-11-20T03:23:34;17.90;84.20
74368;DHT22;64991;41.090;-8.118;2022-11-20T03:28:39;17.90;84.30
74368;DHT22;64991;41.090;-8.118;2022-11-20T03:33:43;17.90;84.30
74368;DHT22;64991;41.090;-8.118;2022-11-20T03:38:46;17.90;84.30
74368;DHT22;64991;41.090;-8.118;2022-11-20T03:43:51;17.80;84.40
74368;DHT22;64991;41.090;-8.118;2022-11-20T03:48:55;18.00;84.30
74368;DHT22;64991;41.090;-8.118;2022-11-20T03:53:59;17.90;84.40
74368;DHT22;64991;41.090;-8.118;2022-11-20T03:59:04;17.90;84.40
74368;DHT22;64991;41.090;-8.118;2022-11-20T04:04:07;17.90;84.50
74368;DHT22;64991;41.090;-8.118;2022-11-20T04:09:10;17.80;84.40
74368;DHT22;64991;41.090;-8.118;2022-11-20T04:14:15;17.90;84.20
74368;DHT22;64991;41.090;-8.118;2022-11-20T04:19:18;17.90;84.30
74368;DHT22;64991;41.090;-8.118;2022-11-20T04:24:22;17.80;84.20
74368;DHT22;64991;41.090;-8.118;2022-11-20T04:29:26;17.90;84.40
74368;DHT22;64991;41.090;-8.118;2022-11-20T04:34:29;17.90;84.30
74368;DHT22;64991;41.090;-8.118;2022-11-20T04:39:32;17.90;84.20
74368;DHT22;64991;41.090;-8.118;2022-11-20T04:44:37;17.90;84.30
74368;DHT22;64991;41.090;-8.118;2022-11-20T04:49:40;17.90;84.20
74368;DHT22;64991;41.090;-8.118;2022-11-20T04:54:43;18.00;84.40
74368;DHT22;64991;41.090;-8.118;2022-11-20T04:59:48;18.00;84.20
74368;DHT22;64991;41.090;-8.118;2022-11-20T05:04:51;17.90;84.10
74368;DHT22;64991;41.090;-8.118;2022-11-20T05:09:54;17.90;84.10
74368;DHT22;64991;41.090;-8.118;2022-11-20T05:14:59;18.00;84.30
74368;DHT22;64991;41.090;-8.118;2022-11-20T05:20:02;18.00;84.30
74368;DHT22;64991;41.090;-8.118;2022-11-20T05:25:05;18.00;84.40
74368;DHT22;64991;41.090;-8.118;2022-11-20T05:30:11;18.00;84.20
74368;DHT22;64991;41.090;-8.118;2022-11-20T05:35:14;17.90;84.20
74368;DHT22;64991;41.090;-8.118;2022-11-20T05:40:17;18.00;84.30
74368;DHT22;64991;41.090;-8.118;2022-11-20T05:45:22;17.90;84.20
74368;DHT22;64991;41.090;-8.118;2022-11-20T05:50:25;18.10;84.20
74368;DHT22;64991;41.090;-8.118;2022-11-20T05:55:28;18.10;84.50
74368;DHT22;64991;41.090;-8.118;2022-11-20T06:00:33;18.10;84.00
74368;DHT22;64991;41.090;-8.118;2022-11-20T06:05:37;18.00;84.30
74368;DHT22;64991;41.090;-8.118;2022-11-20T06:10:40;18.00;84.20
74368;DHT22;64991;41.090;-8.118;2022-11-20T06:15:49;18.10;84.10
74368;DHT22;64991;41.090;-8.118;2022-11-20T06:20:58;18.00;84.20
74368;DHT22;64991;41.090;-8.118;2022-11-20T06:26:02;18.10;84.20
74368;DHT22;64991;41.090;-8.118;2022-11-20T06:31:07;18.10;84.30
74368;DHT22;64991;41.090;-8.118;2022-11-20T06:36:13;18.00;84.20
74368;DHT22;64991;41.090;-8.118;2022-11-20T06:41:17;18.10;84.20
74368;DHT22;64991;41.090;-8.118;2022-11-20T06:46:22;18.10;84.10
74368;DHT22;64991;41.090;-8.118;2022-11-20T06:51:25;18.00;84.20
74368;DHT22;64991;41.090;-8.118;2022-11-20T06:56:28;18.10;84.50
74368;DHT22;64991;41.090;-8.118;2022-11-20T07:01:32;18.10;84.00
74368;DHT22;64991;41.090;-8.118;2022-11-20T07:06:36;18.00;84.50
74368;DHT22;64991;41.090;-8.118;2022-11-20T07:11:39;18.00;84.30
74368;DHT22;64991;41.090;-8.118;2022-11-20T07:16:44;18.00;84.40
74368;DHT22;64991;41.090;-8.118;2022-11-20T07:21:47;18.00;84.30
74368;DHT22;64991;41.090;-8.118;2022-11-20T07:26:50;18.00;84.40
74368;DHT22;64991;41.090;-8.118;2022-11-20T07:31:54;18.10;84.10
74368;DHT22;64991;41.090;-8.118;2022-11-20T07:36:58;18.20;83.80
74368;DHT22;64991;41.090;-8.118;2022-11-20T07:42:02;18.10;84.20
74368;DHT22;64991;41.090;-8.118;2022-11-20T07:47:07;18.10;84.20
74368;DHT22;64991;41.090;-8.118;2022-11-20T07:52:10;18.10;84.30
74368;DHT22;64991;41.090;-8.118;2022-11-20T07:57:13;18.10;84.60
74368;DHT22;64991;41.090;-8.118;2022-11-20T08:02:17;18.10;84.60
74368;DHT22;64991;41.090;-8.118;2022-11-20T08:07:21;18.10;84.60
74368;DHT22;64991;41.090;-8.118;2022-11-20T08:12:24;18.10;84.30
74368;DHT22;64991;41.090;-8.118;2022-11-20T08:17:46;18.10;84.30
74368;DHT22;64991;41.090;-8.118;2022-11-20T08:23:09;18.10;84.20
74368;DHT22;64991;41.090;-8.118;2022-11-20T08:28:12;18.10;84.70
74368;DHT22;64991;41.090;-8.118;2022-11-20T08:33:23;18.20;84.40
74368;DHT22;64991;41.090;-8.118;2022-11-20T08:38:26;18.20;84.70
74368;DHT22;64991;41.090;-8.118;2022-11-20T08:43:30;18.10;85.70
74368;DHT22;64991;41.090;-8.118;2022-11-20T08:48:34;18.20;85.60
74368;DHT22;64991;41.090;-8.118;2022-11-20T08:53:37;18.10;86.20
74368;DHT22;64991;41.090;-8.118;2022-11-20T08:58:41;18.10;86.30
74368;DHT22;64991;41.090;-8.118;2022-11-20T09:04:05;18.20;85.60
74368;DHT22;64991;41.090;-8.118;2022-11-20T09:09:08;18.20;85.70
74368;DHT22;64991;41.090;-8.118;2022-11-20T09:14:11;18.30;85.90
74368;DHT22;64991;41.090;-8.118;2022-11-20T09:19:18;18.30;86.30
74368;DHT22;64991;41.090;-8.118;2022-11-20T09:24:36;18.40;86.60
74368;DHT22;64991;41.090;-8.118;2022-11-20T09:41:32;20.10;82.80
74368;DHT22;64991;41.090;-8.118;2022-11-20T09:46:40;20.10;83.60
74368;DHT22;64991;41.090;-8.118;2022-11-20T09:51:46;20.20;83.20
74368;DHT22;64991;41.090;-8.118;2022-11-20T09:56:55;20.10;83.80
74368;DHT22;64991;41.090;-8.118;2022-11-20T10:01:59;20.10;83.50
74368;DHT22;64991;41.090;-8.118;2022-11-20T10:07:04;20.20;83.20
74368;DHT22;64991;41.090;-8.118;2022-11-20T10:12:33;20.30;83.50
74368;DHT22;64991;41.090;-8.118;2022-11-20T10:17:50;20.40;82.80
74368;DHT22;64991;41.090;-8.118;2022-11-20T10:23:02;20.40;82.50
74368;DHT22;64991;41.090;-8.118;2022-11-20T10:28:12;20.30;83.00
74368;DHT22;64991;41.090;-8.118;2022-11-20T10:33:19;20.30;83.40
74368;DHT22;64991;41.090;-8.118;2022-11-20T10:38:25;20.20;83.30
74368;DHT22;64991;41.090;-8.118;2022-11-20T10:43:32;20.20;83.70
74368;DHT22;64991;41.090;-8.118;2022-11-20T10:48:36;20.30;83.10
74368;DHT22;64991;41.090;-8.118;2022-11-20T10:53:42;20.30;83.10
74368;DHT22;64991;41.090;-8.118;2022-11-20T10:58:52;20.30;83.10
74368;DHT22;64991;41.090;-8.118;2022-11-20T11:03:57;20.30;82.70
74368;DHT22;64991;41.090;-8.118;2022-11-20T11:09:02;20.30;83.20
74368;DHT22;64991;41.090;-8.118;2022-11-20T11:14:09;20.40;82.00
74368;DHT22;64991;41.090;-8.118;2022-11-20T11:19:13;20.40;82.20
74368;DHT22;64991;41.090;-8.118;2022-11-20T11:24:19;20.50;81.80
74368;DHT22;64991;41.090;-8.118;2022-11-20T11:29:44;20.40;81.90
74368;DHT22;64991;41.090;-8.118;2022-11-20T11:34:58;20.30;82.60
74368;DHT22;64991;41.090;-8.118;2022-11-20T11:40:02;20.40;81.90
74368;DHT22;64991;41.090;-8.118;2022-11-20T11:45:27;20.20;82.90
74368;DHT22;64991;41.090;-8.118;2022-11-20T11:50:31;19.70;86.50
74368;DHT22;64991;41.090;-8.118;2022-11-20T11:55:35;19.40;88.70
74368;DHT22;64991;41.090;-8.118;2022-11-20T12:00:41;19.50;87.70
74368;DHT22;64991;41.090;-8.118;2022-11-20T12:05:49;20.00;85.90
74368;DHT22;64991;41.090;-8.118;2022-11-20T12:10:55;20.20;85.00
74368;DHT22;64991;41.090;-8.118;2022-11-20T12:16:00;20.30;85.50
74368;DHT22;64991;41.090;-8.118;2022-11-20T12:21:08;20.10;86.50
74368;DHT22;64991;41.090;-8.118;2022-11-20T12:26:18;20.00;86.50
74368;DHT22;64991;41.090;-8.118;2022-11-20T12:31:28;20.00;87.00
74368;DHT22;64991;41.090;-8.118;2022-11-20T12:36:35;20.10;86.70
74368;DHT22;64991;41.090;-8.118;2022-11-20T12:41:43;19.90;87.30
74368;DHT22;64991;41.090;-8.118;2022-11-20T12:47:09;19.70;88.30
74368;DHT22;64991;41.090;-8.118;2022-11-20T12:52:20;19.80;88.60
74368;DHT22;64991;41.090;-8.118;2022-11-20T12:57:31;19.80;88.90
74368;DHT22;64991;41.090;-8.118;2022-11-20T13:02:44;19.80;89.10
74368;DHT22;64991;41.090;-8.118;2022-11-20T13:07:50;19.90;88.70
74368;DHT22;64991;41.090;-8.118;2022-11-20T13:12:55;19.60;90.00
74368;DHT22;64991;41.090;-8.118;2022-11-20T13:18:01;19.80;88.90
74368;DHT22;64991;41.090;-8.118;2022-11-20T13:23:05;20.30;86.70
74368;DHT22;64991;41.090;-8.118;2022-11-20T13:33:29;20.40;85.80
74368;DHT22;64991;41.090;-8.118;2022-11-20T13:38:40;20.40;85.20
74368;DHT22;64991;41.090;-8.118;2022-11-20T13:43:46;20.60;85.00
74368;DHT22;64991;41.090;-8.118;2022-11-20T13:48:51;20.50;85.40
74368;DHT22;64991;41.090;-8.118;2022-11-20T13:54:05;20.50;85.80
74368;DHT22;64991;41.090;-8.118;2022-11-20T13:59:16;20.60;85.40
74368;DHT22;64991;41.090;-8.118;2022-11-20T14:04:29;20.60;85.40
74368;DHT22;64991;41.090;-8.118;2022-11-20T14:09:35;20.50;85.40
74368;DHT22;64991;41.090;-8.118;2022-11-20T14:14:46;20.50;87.00
74368;DHT22;64991;41.090;-8.118;2022-11-20T14:19:51;20.50;87.20
74368;DHT22;64991;41.090;-8.118;2022-11-20T14:25:03;20.40;87.40
74368;DHT22;64991;41.090;-8.118;2022-11-20T14:30:11;20.40;86.00
74368;DHT22;64991;41.090;-8.118;2022-11-20T14:35:19;20.40;85.60
74368;DHT22;64991;41.090;-8.118;2022-11-20T14:40:25;20.60;85.50
74368;DHT22;64991;41.090;-8.118;2022-11-20T14:45:28;20.50;85.60
74368;DHT22;64991;41.090;-8.118;2022-11-20T14:50:33;20.40;85.80
74368;DHT22;64991;41.090;-8.118;2022-11-20T14:55:37;20.50;85.60
74368;DHT22;64991;41.090;-8.118;2022-11-20T15:00:41;20.50;85.40
74368;DHT22;64991;41.090;-8.118;2022-11-20T15:05:46;20.60;84.90
74368;DHT22;64991;41.090;-8.118;2022-11-20T15:10:50;20.50;84.60
74368;DHT22;64991;41.090;-8.118;2022-11-20T15:15:54;20.40;84.90
74368;DHT22;64991;41.090;-8.118;2022-11-20T15:21:00;20.30;85.10
74368;DHT22;64991;41.090;-8.118;2022-11-20T15:26:04;20.30;85.00
74368;DHT22;64991;41.090;-8.118;2022-11-20T15:31:09;20.40;84.60
74368;DHT22;64991;41.090;-8.118;2022-11-20T15:36:14;19.00;87.80
74368;DHT22;64991;41.090;-8.118;2022-11-20T15:41:17;18.70;89.30
74368;DHT22;64991;41.090;-8.118;2022-11-20T15:46:23;18.70;89.80
74368;DHT22;64991;41.090;-8.118;2022-11-20T15:51:28;18.70;90.10
74368;DHT22;64991;41.090;-8.118;2022-11-20T15:56:32;18.70;90.30
74368;DHT22;64991;41.090;-8.118;2022-11-20T16:01:35;18.60;90.40
74368;DHT22;64991;41.090;-8.118;2022-11-20T16:06:40;18.50;90.50
74368;DHT22;64991;41.090;-8.118;2022-11-20T16:11:43;18.50;90.70
74368;DHT22;64991;41.090;-8.118;2022-11-20T16:16:47;18.60;90.80
74368;DHT22;64991;41.090;-8.118;2022-11-20T16:21:51;18.50;90.80
74368;DHT22;64991;41.090;-8.118;2022-11-20T16:27:02;18.50;90.90
74368;DHT22;64991;41.090;-8.118;2022-11-20T16:32:06;18.40;90.90
74368;DHT22;64991;41.090;-8.118;2022-11-20T16:37:11;18.40;91.00
74368;DHT22;64991;41.090;-8.118;2022-11-20T16:42:15;18.50;90.50
74368;DHT22;64991;41.090;-8.118;2022-11-20T16:47:18;18.40;90.80
74368;DHT22;64991;41.090;-8.118;2022-11-20T16:52:22;18.30;90.70
74368;DHT22;64991;41.090;-8.118;2022-11-20T16:57:26;18.30;90.60
74368;DHT22;64991;41.090;-8.118;2022-11-20T17:02:29;18.30;90.50
74368;DHT22;64991;41.090;-8.118;2022-11-20T17:07:34;18.30;90.50
74368;DHT22;64991;41.090;-8.118;2022-11-20T17:12:38;18.30;90.50
74368;DHT22;64991;41.090;-8.118;2022-11-20T17:17:42;18.30;90.40
74368;DHT22;64991;41.090;-8.118;2022-11-20T17:22:46;18.30;90.30
74368;DHT22;64991;41.090;-8.118;2022-11-20T17:27:49;18.20;90.40
74368;DHT22;64991;41.090;-8.118;2022-11-20T17:32:53;18.30;90.20
74368;DHT22;64991;41.090;-8.118;2022-11-20T17:37:57;18.30;90.20
74368;DHT22;64991;41.090;-8.118;2022-11-20T17:43:00;18.30;90.00
74368;DHT22;64991;41.090;-8.118;2022-11-20T17:48:04;18.30;89.80
74368;DHT22;64991;41.090;-8.118;2022-11-20T17:53:08;18.30;89.90
74368;DHT22;64991;41.090;-8.118;2022-11-20T17:58:12;18.30;89.70
74368;DHT22;64991;41.090;-8.118;2022-11-20T18:03:15;18.30;90.00
74368;DHT22;64991;41.090;-8.118;2022-11-20T18:08:19;18.30;89.80
74368;DHT22;64991;41.090;-8.118;2022-11-20T18:13:23;18.30;89.60
74368;DHT22;64991;41.090;-8.118;2022-11-20T18:18:48;18.30;89.70
74368;DHT22;64991;41.090;-8.118;2022-11-20T18:23:53;18.40;89.60
74368;DHT22;64991;41.090;-8.118;2022-11-20T18:28:56;18.40;89.50
74368;DHT22;64991;41.090;-8.118;2022-11-20T18:34:06;18.30;89.40
74368;DHT22;64991;41.090;-8.118;2022-11-20T18:39:14;18.20;89.80
74368;DHT22;64991;41.090;-8.118;2022-11-20T18:44:17;18.30;89.40
74368;DHT22;64991;41.090;-8.118;2022-11-20T18:49:38;18.30;89.50
74368;DHT22;64991;41.090;-8.118;2022-11-20T18:54:43;18.30;89.30
74368;DHT22;64991;41.090;-8.118;2022-11-20T18:59:46;18.30;89.40
74368;DHT22;64991;41.090;-8.118;2022-11-20T19:04:49;18.30;89.20
74368;DHT22;64991;41.090;-8.118;2022-11-20T19:09:54;18.30;89.10
74368;DHT22;64991;41.090;-8.118;2022-11-20T19:15:04;18.30;88.90
74368;DHT22;64991;41.090;-8.118;2022-11-20T19:20:08;18.20;89.20
74368;DHT22;64991;41.090;-8.118;2022-11-20T19:25:12;18.20;89.00
74368;DHT22;64991;41.090;-8.118;2022-11-20T19:30:15;18.30;88.90
74368;DHT22;64991;41.090;-8.118;2022-11-20T19:35:19;18.30;88.90
74368;DHT22;64991;41.090;-8.118;2022-11-20T19:40:23;18.30;89.10
74368;DHT22;64991;41.090;-8.118;2022-11-20T19:45:27;18.30;89.00
74368;DHT22;64991;41.090;-8.118;2022-11-20T19:50:30;18.30;88.80
74368;DHT22;64991;41.090;-8.118;2022-11-20T19:55:35;18.20;88.90
74368;DHT22;64991;41.090;-8.118;2022-11-20T20:00:38;18.40;88.90
74368;DHT22;64991;41.090;-8.118;2022-11-20T20:05:41;18.30;88.60
74368;DHT22;64991;41.090;-8.118;2022-11-20T20:10:46;18.30;88.60
74368;DHT22;64991;41.090;-8.118;2022-11-20T20:15:49;18.20;88.50
74368;DHT22;64991;41.090;-8.118;2022-11-20T20:20:52;18.30;88.90
74368;DHT22;64991;41.090;-8.118;2022-11-20T20:26:03;18.30;88.70
74368;DHT22;64991;41.090;-8.118;2022-11-20T20:31:06;18.30;88.70
74368;DHT22;64991;41.090;-8.118;2022-11-20T20:36:10;18.20;88.60
74368;DHT22;64991;41.090;-8.118;2022-11-20T20:41:17;18.20;88.90
74368;DHT22;64991;41.090;-8.118;2022-11-20T20:46:20;18.30;88.70
74368;DHT22;64991;41.090;-8.118;2022-11-20T20:51:23;18.30;88.70
74368;DHT22;64991;41.090;-8.118;2022-11-20T20:56:28;18.30;88.50
74368;DHT22;64991;41.090;-8.118;2022-11-20T21:01:31;18.30;88.80
74368;DHT22;64991;41.090;-8.118;2022-11-20T21:06:35;18.40;88.70
74368;DHT22;64991;41.090;-8.118;2022-11-20T21:11:39;18.20;88.70
74368;DHT22;64991;41.090;-8.118;2022-11-20T21:16:43;18.30;88.60
74368;DHT22;64991;41.090;-8.118;2022-11-20T21:21:46;18.30;88.40
74368;DHT22;64991;41.090;-8.118;2022-11-20T21:27:03;18.40;88.50
74368;DHT22;64991;41.090;-8.118;2022-11-20T21:32:07;18.30;88.50
74368;DHT22;64991;41.090;-8.118;2022-11-20T21:37:10;18.30;88.50
74368;DHT22;64991;41.090;-8.118;2022-11-20T21:42:15;18.30;88.60
74368;DHT22;64991;41.090;-8.118;2022-11-20T21:47:18;18.30;88.40
74368;DHT22;64991;41.090;-8.118;2022-11-20T21:52:21;18.30;88.40
74368;DHT22;64991;41.090;-8.118;2022-11-20T21:57:26;18.30;88.60
74368;DHT22;64991;41.090;-8.118;2022-11-20T22:02:29;18.30;88.30
74368;DHT22;64991;41.090;-8.118;2022-11-20T22:07:32;18.40;88.20
74368;DHT22;64991;41.090;-8.118;2022-11-20T22:12:37;18.30;88.70
74368;DHT22;64991;41.090;-8.118;2022-11-20T22:17:40;18.30;88.50
74368;DHT22;64991;41.090;-8.118;2022-11-20T22:23:00;18.20;88.70
74368;DHT22;64991;41.090;-8.118;2022-11-20T22:28:05;18.20;88.50
74368;DHT22;64991;41.090;-8.118;2022-11-20T22:33:08;18.40;88.40
74368;DHT22;64991;41.090;-8.118;2022-11-20T22:38:14;18.30;88.30
74368;DHT22;64991;41.090;-8.118;2022-11-20T22:43:19;18.30;88.60
74368;DHT22;64991;41.090;-8.118;2022-11-20T22:48:22;18.30;88.70
74368;DHT22;64991;41.090;-8.118;2022-11-20T22:53:25;18.20;88.50
74368;DHT22;64991;41.090;-8.118;2022-11-20T22:58:30;18.40;88.60
74368;DHT22;64991;41.090;-8.118;2022-11-20T23:03:33;18.20;88.60
74368;DHT22;64991;41.090;-8.118;2022-11-20T23:08:37;18.40;88.60
74368;DHT22;64991;41.090;-8.118;2022-11-20T23:13:42;18.40;88.50
74368;DHT22;64991;41.090;-8.118;2022-11-20T23:18:45;18.40;88.70
74368;DHT22;64991;41.090;-8.118;2022-11-20T23:23:49;18.30;88.60
74368;DHT22;64991;41.090;-8.118;2022-11-20T23:28:54;18.20;88.60
74368;DHT22;64991;41.090;-8.118;2022-11-20T23:33:58;18.30;88.40
74368;DHT22;64991;41.090;-8.118;2022-11-20T23:39:01;18.40;88.70
74368;DHT22;64991;41.090;-8.118;2022-11-20T23:44:06;18.20;88.70
74368;DHT22;64991;41.090;-8.118;2022-11-20T23:49:09;18.30;88.60
74368;DHT22;64991;41.090;-8.118;2022-11-20T23:54:13;18.30;88.50
74368;DHT22;64991;41.090;-8.118;2022-11-20T23:59:17;18.30;88.40
